sensor_id;sensor_type;location;lat;lon;timestamp;P1;durP1;ratioP1;P2;durP2;ratioP2
22441;SDS011;11388;54.456;9.752;2023-04-25T00:00:13;8.35;;;2.67;;
22441;SDS011;11388;54.456;9.752;2023-04-25T00:02:39;12.30;;;2.75;;
22441;SDS011;11388;54.456;9.752;2023-04-25T00:05:05;10.68;;;2.30;;
22441;SDS011;11388;54.456;9.752;2023-04-25T00:07:31;14.32;;;3.20;;
22441;SDS011;11388;54.456;9.752;2023-04-25T00:09:57;13.05;;;3.42;;
22441;SDS011;11388;54.456;9.752;2023-04-25T00:12:23;12.90;;;3.00;;
22441;SDS011;11388;54.456;9.752;2023-04-25T00:14:49;14.75;;;2.83;;
22441;SDS011;11388;54.456;9.752;2023-04-25T00:17:15;13.82;;;3.00;;
22441;SDS011;11388;54.456;9.752;2023-04-25T00:19:44;15.00;;;3.10;;
22441;SDS011;11388;54.456;9.752;2023-04-25T00:22:11;19.77;;;3.38;;
22441;SDS011;11388;54.456;9.752;2023-04-25T00:24:38;16.42;;;3.60;;
22441;SDS011;11388;54.456;9.752;2023-04-25T00:27:03;16.08;;;3.65;;
22441;SDS011;11388;54.456;9.752;2023-04-25T00:29:29;16.83;;;3.63;;
22441;SDS011;11388;54.456;9.752;2023-04-25T00:31:55;17.42;;;3.65;;
22441;SDS011;11388;54.456;9.752;2023-04-25T00:34:21;17.65;;;4.20;;
22441;SDS011;11388;54.456;9.752;2023-04-25T00:36:46;16.15;;;3.70;;
22441;SDS011;11388;54.456;9.752;2023-04-25T00:39:15;13.75;;;3.10;;
22441;SDS011;11388;54.456;9.752;2023-04-25T00:41:40;16.17;;;3.70;;
22441;SDS011;11388;54.456;9.752;2023-04-25T00:44:08;14.35;;;2.90;;
22441;SDS011;11388;54.456;9.752;2023-04-25T00:46:36;16.65;;;3.35;;
22441;SDS011;11388;54.456;9.752;2023-04-25T00:49:02;14.77;;;3.22;;
22441;SDS011;11388;54.456;9.752;2023-04-25T00:51:28;10.68;;;2.90;;
22441;SDS011;11388;54.456;9.752;2023-04-25T00:53:55;12.27;;;2.85;;
22441;SDS011;11388;54.456;9.752;2023-04-25T00:56:21;14.73;;;3.25;;
22441;SDS011;11388;54.456;9.752;2023-04-25T00:58:46;13.45;;;3.05;;
22441;SDS011;11388;54.456;9.752;2023-04-25T01:01:14;14.30;;;3.17;;
22441;SDS011;11388;54.456;9.752;2023-04-25T01:03:40;15.00;;;3.05;;
22441;SDS011;11388;54.456;9.752;2023-04-25T01:06:09;12.45;;;2.70;;
22441;SDS011;11388;54.456;9.752;2023-04-25T01:08:36;10.25;;;2.60;;
22441;SDS011;11388;54.456;9.752;2023-04-25T01:11:03;12.38;;;3.08;;
22441;SDS011;11388;54.456;9.752;2023-04-25T01:13:29;12.30;;;2.70;;
22441;SDS011;11388;54.456;9.752;2023-04-25T01:15:57;11.30;;;2.42;;
22441;SDS011;11388;54.456;9.752;2023-04-25T01:18:23;10.88;;;2.90;;
22441;SDS011;11388;54.456;9.752;2023-04-25T01:20:53;13.25;;;2.40;;
22441;SDS011;11388;54.456;9.752;2023-04-25T01:23:20;11.05;;;2.90;;
22441;SDS011;11388;54.456;9.752;2023-04-25T01:25:46;13.70;;;2.97;;
22441;SDS011;11388;54.456;9.752;2023-04-25T01:28:14;16.23;;;2.83;;
22441;SDS011;11388;54.456;9.752;2023-04-25T01:30:40;13.07;;;2.80;;
22441;SDS011;11388;54.456;9.752;2023-04-25T01:33:19;13.65;;;3.50;;
22441;SDS011;11388;54.456;9.752;2023-04-25T01:35:46;12.68;;;3.10;;
22441;SDS011;11388;54.456;9.752;2023-04-25T01:38:12;14.20;;;3.05;;
22441;SDS011;11388;54.456;9.752;2023-04-25T01:40:42;14.57;;;2.90;;
22441;SDS011;11388;54.456;9.752;2023-04-25T01:43:10;16.48;;;3.55;;
22441;SDS011;11388;54.456;9.752;2023-04-25T01:45:43;11.43;;;2.78;;
22441;SDS011;11388;54.456;9.752;2023-04-25T01:48:10;14.13;;;3.25;;
22441;SDS011;11388;54.456;9.752;2023-04-25T01:50:37;12.65;;;3.28;;
22441;SDS011;11388;54.456;9.752;2023-04-25T01:53:03;14.25;;;3.15;;
22441;SDS011;11388;54.456;9.752;2023-04-25T01:55:30;13.02;;;2.63;;
22441;SDS011;11388;54.456;9.752;2023-04-25T01:57:55;12.48;;;3.08;;
22441;SDS011;11388;54.456;9.752;2023-04-25T02:00:21;15.88;;;3.33;;
22441;SDS011;11388;54.456;9.752;2023-04-25T02:02:47;18.98;;;3.47;;
22441;SDS011;11388;54.456;9.752;2023-04-25T02:05:15;16.33;;;3.28;;
22441;SDS011;11388;54.456;9.752;2023-04-25T02:07:41;20.38;;;3.80;;
22441;SDS011;11388;54.456;9.752;2023-04-25T02:10:07;15.90;;;3.50;;
22441;SDS011;11388;54.456;9.752;2023-04-25T02:12:34;12.38;;;3.20;;
22441;SDS011;11388;54.456;9.752;2023-04-25T02:15:00;14.75;;;2.85;;
22441;SDS011;11388;54.456;9.752;2023-04-25T02:17:26;19.05;;;3.17;;
22441;SDS011;11388;54.456;9.752;2023-04-25T02:19:52;19.58;;;3.53;;
22441;SDS011;11388;54.456;9.752;2023-04-25T02:22:18;15.98;;;3.08;;
22441;SDS011;11388;54.456;9.752;2023-04-25T02:24:44;13.93;;;3.78;;
22441;SDS011;11388;54.456;9.752;2023-04-25T02:27:10;13.45;;;3.55;;
22441;SDS011;11388;54.456;9.752;2023-04-25T02:29:36;13.02;;;3.13;;
22441;SDS011;11388;54.456;9.752;2023-04-25T02:32:03;16.40;;;3.53;;
22441;SDS011;11388;54.456;9.752;2023-04-25T02:34:29;22.00;;;3.90;;
22441;SDS011;11388;54.456;9.752;2023-04-25T02:36:54;11.55;;;2.85;;
22441;SDS011;11388;54.456;9.752;2023-04-25T02:39:21;14.88;;;3.47;;
22441;SDS011;11388;54.456;9.752;2023-04-25T02:41:47;18.15;;;3.38;;
22441;SDS011;11388;54.456;9.752;2023-04-25T02:44:13;14.55;;;3.65;;
22441;SDS011;11388;54.456;9.752;2023-04-25T02:46:38;15.68;;;3.55;;
22441;SDS011;11388;54.456;9.752;2023-04-25T02:49:04;13.90;;;3.10;;
22441;SDS011;11388;54.456;9.752;2023-04-25T02:51:30;11.40;;;2.92;;
22441;SDS011;11388;54.456;9.752;2023-04-25T02:53:56;13.90;;;2.92;;
22441;SDS011;11388;54.456;9.752;2023-04-25T02:56:22;13.07;;;3.10;;
22441;SDS011;11388;54.456;9.752;2023-04-25T02:58:47;15.48;;;3.40;;
22441;SDS011;11388;54.456;9.752;2023-04-25T03:01:13;16.10;;;3.40;;
22441;SDS011;11388;54.456;9.752;2023-04-25T03:03:39;13.27;;;3.05;;
22441;SDS011;11388;54.456;9.752;2023-04-25T03:06:05;12.00;;;3.28;;
22441;SDS011;11388;54.456;9.752;2023-04-25T03:08:30;14.43;;;3.70;;
22441;SDS011;11388;54.456;9.752;2023-04-25T03:10:57;16.40;;;3.67;;
22441;SDS011;11388;54.456;9.752;2023-04-25T03:13:23;15.40;;;3.05;;
22441;SDS011;11388;54.456;9.752;2023-04-25T03:15:49;17.52;;;3.50;;
22441;SDS011;11388;54.456;9.752;2023-04-25T03:18:17;14.63;;;3.40;;
22441;SDS011;11388;54.456;9.752;2023-04-25T03:20:43;15.65;;;3.92;;
22441;SDS011;11388;54.456;9.752;2023-04-25T03:23:09;17.42;;;3.97;;
22441;SDS011;11388;54.456;9.752;2023-04-25T03:25:35;14.90;;;3.33;;
22441;SDS011;11388;54.456;9.752;2023-04-25T03:28:02;16.58;;;3.20;;
22441;SDS011;11388;54.456;9.752;2023-04-25T03:30:27;14.65;;;3.53;;
22441;SDS011;11388;54.456;9.752;2023-04-25T03:32:53;12.27;;;2.90;;
22441;SDS011;11388;54.456;9.752;2023-04-25T03:35:19;11.50;;;2.97;;
22441;SDS011;11388;54.456;9.752;2023-04-25T03:37:45;9.90;;;3.00;;
22441;SDS011;11388;54.456;9.752;2023-04-25T03:40:11;15.30;;;3.50;;
22441;SDS011;11388;54.456;9.752;2023-04-25T03:42:37;14.75;;;2.85;;
22441;SDS011;11388;54.456;9.752;2023-04-25T03:45:02;14.80;;;3.22;;
22441;SDS011;11388;54.456;9.752;2023-04-25T03:47:29;12.43;;;2.63;;
22441;SDS011;11388;54.456;9.752;2023-04-25T03:49:54;12.05;;;2.78;;
22441;SDS011;11388;54.456;9.752;2023-04-25T03:52:20;11.52;;;2.70;;
22441;SDS011;11388;54.456;9.752;2023-04-25T03:54:46;11.82;;;2.33;;
22441;SDS011;11388;54.456;9.752;2023-04-25T03:57:11;8.77;;;2.60;;
22441;SDS011;11388;54.456;9.752;2023-04-25T03:59:37;14.30;;;3.08;;
22441;SDS011;11388;54.456;9.752;2023-04-25T04:02:03;13.15;;;3.08;;
22441;SDS011;11388;54.456;9.752;2023-04-25T04:04:29;13.63;;;2.85;;
22441;SDS011;11388;54.456;9.752;2023-04-25T04:06:55;16.10;;;2.83;;
22441;SDS011;11388;54.456;9.752;2023-04-25T04:09:21;13.30;;;2.80;;
22441;SDS011;11388;54.456;9.752;2023-04-25T04:11:46;10.40;;;2.65;;
22441;SDS011;11388;54.456;9.752;2023-04-25T04:14:12;10.48;;;2.65;;
22441;SDS011;11388;54.456;9.752;2023-04-25T04:16:38;14.27;;;2.67;;
22441;SDS011;11388;54.456;9.752;2023-04-25T04:19:04;13.27;;;2.63;;
22441;SDS011;11388;54.456;9.752;2023-04-25T04:21:30;15.30;;;2.72;;
22441;SDS011;11388;54.456;9.752;2023-04-25T04:23:57;12.20;;;2.58;;
22441;SDS011;11388;54.456;9.752;2023-04-25T04:26:25;11.85;;;2.60;;
22441;SDS011;11388;54.456;9.752;2023-04-25T04:28:51;12.25;;;2.63;;
22441;SDS011;11388;54.456;9.752;2023-04-25T04:31:19;14.32;;;3.63;;
22441;SDS011;11388;54.456;9.752;2023-04-25T04:33:46;12.50;;;3.65;;
22441;SDS011;11388;54.456;9.752;2023-04-25T04:36:12;14.60;;;2.75;;
22441;SDS011;11388;54.456;9.752;2023-04-25T04:38:38;14.25;;;2.90;;
22441;SDS011;11388;54.456;9.752;2023-04-25T04:41:05;15.27;;;3.00;;
22441;SDS011;11388;54.456;9.752;2023-04-25T04:43:31;14.63;;;2.55;;
22441;SDS011;11388;54.456;9.752;2023-04-25T04:45:58;12.38;;;3.08;;
22441;SDS011;11388;54.456;9.752;2023-04-25T04:48:26;18.92;;;3.30;;
22441;SDS011;11388;54.456;9.752;2023-04-25T04:50:53;12.18;;;2.83;;
22441;SDS011;11388;54.456;9.752;2023-04-25T04:53:19;13.63;;;2.60;;
22441;SDS011;11388;54.456;9.752;2023-04-25T04:55:44;10.02;;;2.72;;
22441;SDS011;11388;54.456;9.752;2023-04-25T04:58:11;9.82;;;2.70;;
22441;SDS011;11388;54.456;9.752;2023-04-25T05:00:37;13.20;;;2.92;;
22441;SDS011;11388;54.456;9.752;2023-04-25T05:03:03;12.77;;;2.97;;
22441;SDS011;11388;54.456;9.752;2023-04-25T05:05:30;12.85;;;2.42;;
22441;SDS011;11388;54.456;9.752;2023-04-25T05:07:56;13.00;;;2.92;;
22441;SDS011;11388;54.456;9.752;2023-04-25T05:10:22;14.90;;;3.03;;
22441;SDS011;11388;54.456;9.752;2023-04-25T05:12:47;11.82;;;3.25;;
22441;SDS011;11388;54.456;9.752;2023-04-25T05:15:13;10.60;;;2.58;;
22441;SDS011;11388;54.456;9.752;2023-04-25T05:17:39;14.30;;;3.08;;
22441;SDS011;11388;54.456;9.752;2023-04-25T05:20:08;15.75;;;2.72;;
22441;SDS011;11388;54.456;9.752;2023-04-25T05:22:35;11.95;;;2.60;;
22441;SDS011;11388;54.456;9.752;2023-04-25T05:25:01;11.18;;;2.88;;
22441;SDS011;11388;54.456;9.752;2023-04-25T05:27:28;13.55;;;3.10;;
22441;SDS011;11388;54.456;9.752;2023-04-25T05:29:53;10.30;;;2.60;;
22441;SDS011;11388;54.456;9.752;2023-04-25T05:32:19;14.23;;;2.80;;
22441;SDS011;11388;54.456;9.752;2023-04-25T05:34:50;10.00;;;2.53;;
22441;SDS011;11388;54.456;9.752;2023-04-25T05:37:16;11.77;;;2.90;;
22441;SDS011;11388;54.456;9.752;2023-04-25T05:39:42;11.82;;;2.65;;
22441;SDS011;11388;54.456;9.752;2023-04-25T05:42:08;12.60;;;2.45;;
22441;SDS011;11388;54.456;9.752;2023-04-25T05:44:34;11.73;;;2.75;;
22441;SDS011;11388;54.456;9.752;2023-04-25T05:47:00;11.68;;;2.60;;
22441;SDS011;11388;54.456;9.752;2023-04-25T05:49:26;13.90;;;2.72;;
22441;SDS011;11388;54.456;9.752;2023-04-25T05:51:51;13.38;;;2.85;;
22441;SDS011;11388;54.456;9.752;2023-04-25T05:54:17;9.75;;;2.20;;
22441;SDS011;11388;54.456;9.752;2023-04-25T05:56:43;12.90;;;2.72;;
22441;SDS011;11388;54.456;9.752;2023-04-25T05:59:12;10.02;;;2.70;;
22441;SDS011;11388;54.456;9.752;2023-04-25T06:01:47;11.45;;;2.90;;
22441;SDS011;11388;54.456;9.752;2023-04-25T06:04:13;10.57;;;2.55;;
22441;SDS011;11388;54.456;9.752;2023-04-25T06:06:38;11.70;;;2.30;;
22441;SDS011;11388;54.456;9.752;2023-04-25T06:09:10;9.35;;;2.47;;
22441;SDS011;11388;54.456;9.752;2023-04-25T06:11:36;14.75;;;2.80;;
22441;SDS011;11388;54.456;9.752;2023-04-25T06:14:02;16.20;;;2.90;;
22441;SDS011;11388;54.456;9.752;2023-04-25T06:16:28;15.13;;;3.60;;
22441;SDS011;11388;54.456;9.752;2023-04-25T06:18:53;18.10;;;3.17;;
22441;SDS011;11388;54.456;9.752;2023-04-25T06:21:19;12.70;;;3.30;;
22441;SDS011;11388;54.456;9.752;2023-04-25T06:23:45;11.50;;;2.97;;
22441;SDS011;11388;54.456;9.752;2023-04-25T06:26:32;11.82;;;2.70;;
22441;SDS011;11388;54.456;9.752;2023-04-25T06:28:57;13.93;;;3.08;;
22441;SDS011;11388;54.456;9.752;2023-04-25T06:31:23;13.35;;;2.63;;
22441;SDS011;11388;54.456;9.752;2023-04-25T06:33:48;11.10;;;2.65;;
22441;SDS011;11388;54.456;9.752;2023-04-25T06:36:20;13.45;;;2.67;;
22441;SDS011;11388;54.456;9.752;2023-04-25T06:38:55;13.18;;;2.85;;
22441;SDS011;11388;54.456;9.752;2023-04-25T06:41:26;11.60;;;2.45;;
22441;SDS011;11388;54.456;9.752;2023-04-25T06:43:55;12.68;;;2.67;;
22441;SDS011;11388;54.456;9.752;2023-04-25T06:46:24;11.73;;;2.70;;
22441;SDS011;11388;54.456;9.752;2023-04-25T06:51:32;11.30;;;2.22;;
22441;SDS011;11388;54.456;9.752;2023-04-25T06:54:12;13.50;;;2.97;;
22441;SDS011;11388;54.456;9.752;2023-04-25T06:56:47;12.90;;;3.17;;
22441;SDS011;11388;54.456;9.752;2023-04-25T06:59:13;10.43;;;2.40;;
22441;SDS011;11388;54.456;9.752;2023-04-25T07:01:41;15.48;;;2.45;;
22441;SDS011;11388;54.456;9.752;2023-04-25T07:04:14;13.65;;;2.78;;
22441;SDS011;11388;54.456;9.752;2023-04-25T07:06:45;10.77;;;2.55;;
22441;SDS011;11388;54.456;9.752;2023-04-25T07:09:14;14.02;;;2.30;;
22441;SDS011;11388;54.456;9.752;2023-04-25T07:11:43;10.13;;;2.33;;
22441;SDS011;11388;54.456;9.752;2023-04-25T07:14:36;14.45;;;2.95;;
22441;SDS011;11388;54.456;9.752;2023-04-25T07:17:02;12.85;;;2.53;;
22441;SDS011;11388;54.456;9.752;2023-04-25T07:19:27;12.23;;;2.60;;
22441;SDS011;11388;54.456;9.752;2023-04-25T07:21:54;11.38;;;2.45;;
22441;SDS011;11388;54.456;9.752;2023-04-25T07:24:20;15.95;;;2.78;;
22441;SDS011;11388;54.456;9.752;2023-04-25T07:26:46;11.88;;;2.67;;
22441;SDS011;11388;54.456;9.752;2023-04-25T07:29:11;12.13;;;2.28;;
22441;SDS011;11388;54.456;9.752;2023-04-25T07:31:41;15.13;;;2.67;;
22441;SDS011;11388;54.456;9.752;2023-04-25T07:34:07;9.05;;;2.05;;
22441;SDS011;11388;54.456;9.752;2023-04-25T07:36:32;11.57;;;2.45;;
22441;SDS011;11388;54.456;9.752;2023-04-25T07:39:01;11.45;;;2.22;;
22441;SDS011;11388;54.456;9.752;2023-04-25T07:41:30;12.15;;;2.33;;
22441;SDS011;11388;54.456;9.752;2023-04-25T07:46:54;10.48;;;2.53;;
22441;SDS011;11388;54.456;9.752;2023-04-25T07:49:23;12.40;;;2.47;;
22441;SDS011;11388;54.456;9.752;2023-04-25T07:51:51;12.77;;;2.45;;
22441;SDS011;11388;54.456;9.752;2023-04-25T08:02:18;11.55;;;2.40;;
22441;SDS011;11388;54.456;9.752;2023-04-25T08:04:44;12.10;;;2.10;;
22441;SDS011;11388;54.456;9.752;2023-04-25T08:07:14;8.57;;;1.92;;
22441;SDS011;11388;54.456;9.752;2023-04-25T08:09:46;8.23;;;2.00;;
22441;SDS011;11388;54.456;9.752;2023-04-25T08:12:19;12.75;;;2.33;;
22441;SDS011;11388;54.456;9.752;2023-04-25T08:14:45;10.40;;;2.10;;
22441;SDS011;11388;54.456;9.752;2023-04-25T08:17:17;14.23;;;2.50;;
22441;SDS011;11388;54.456;9.752;2023-04-25T08:19:43;9.35;;;2.33;;
22441;SDS011;11388;54.456;9.752;2023-04-25T08:22:08;12.15;;;2.30;;
22441;SDS011;11388;54.456;9.752;2023-04-25T08:24:39;11.95;;;2.40;;
22441;SDS011;11388;54.456;9.752;2023-04-25T08:27:11;7.88;;;2.10;;
22441;SDS011;11388;54.456;9.752;2023-04-25T08:29:37;13.32;;;2.42;;
22441;SDS011;11388;54.456;9.752;2023-04-25T08:32:03;13.68;;;2.92;;
22441;SDS011;11388;54.456;9.752;2023-04-25T08:34:29;7.88;;;1.85;;
22441;SDS011;11388;54.456;9.752;2023-04-25T08:36:54;8.82;;;1.85;;
22441;SDS011;11388;54.456;9.752;2023-04-25T08:39:23;9.45;;;2.10;;
22441;SDS011;11388;54.456;9.752;2023-04-25T08:41:52;7.57;;;2.00;;
22441;SDS011;11388;54.456;9.752;2023-04-25T08:44:28;8.07;;;2.00;;
22441;SDS011;11388;54.456;9.752;2023-04-25T08:47:33;7.68;;;1.60;;
22441;SDS011;11388;54.456;9.752;2023-04-25T08:50:03;8.65;;;1.70;;
22441;SDS011;11388;54.456;9.752;2023-04-25T08:55:30;10.55;;;1.90;;
22441;SDS011;11388;54.456;9.752;2023-04-25T08:57:57;9.77;;;1.80;;
22441;SDS011;11388;54.456;9.752;2023-04-25T09:00:25;8.43;;;1.77;;
22441;SDS011;11388;54.456;9.752;2023-04-25T09:02:51;8.30;;;2.25;;
22441;SDS011;11388;54.456;9.752;2023-04-25T09:05:18;10.73;;;2.08;;
22441;SDS011;11388;54.456;9.752;2023-04-25T09:07:44;9.30;;;1.83;;
22441;SDS011;11388;54.456;9.752;2023-04-25T09:10:10;7.68;;;1.80;;
22441;SDS011;11388;54.456;9.752;2023-04-25T09:12:36;10.80;;;2.00;;
22441;SDS011;11388;54.456;9.752;2023-04-25T09:15:03;9.70;;;1.80;;
22441;SDS011;11388;54.456;9.752;2023-04-25T09:17:31;10.85;;;1.92;;
22441;SDS011;11388;54.456;9.752;2023-04-25T09:20:14;7.72;;;1.77;;
22441;SDS011;11388;54.456;9.752;2023-04-25T09:22:40;12.93;;;2.13;;
22441;SDS011;11388;54.456;9.752;2023-04-25T09:28:29;10.25;;;2.30;;
22441;SDS011;11388;54.456;9.752;2023-04-25T09:30:56;8.93;;;1.70;;
22441;SDS011;11388;54.456;9.752;2023-04-25T09:33:46;13.80;;;2.38;;
22441;SDS011;11388;54.456;9.752;2023-04-25T09:39:40;9.43;;;2.17;;
22441;SDS011;11388;54.456;9.752;2023-04-25T09:42:25;11.75;;;2.38;;
22441;SDS011;11388;54.456;9.752;2023-04-25T09:51:31;9.55;;;1.70;;
22441;SDS011;11388;54.456;9.752;2023-04-25T09:54:00;9.10;;;1.70;;
22441;SDS011;11388;54.456;9.752;2023-04-25T09:56:28;8.20;;;1.55;;
22441;SDS011;11388;54.456;9.752;2023-04-25T09:58:59;10.52;;;1.60;;
22441;SDS011;11388;54.456;9.752;2023-04-25T10:11:53;11.32;;;2.22;;
22441;SDS011;11388;54.456;9.752;2023-04-25T10:14:19;10.88;;;2.15;;
22441;SDS011;11388;54.456;9.752;2023-04-25T10:16:46;9.50;;;1.90;;
22441;SDS011;11388;54.456;9.752;2023-04-25T10:19:12;10.05;;;2.08;;
22441;SDS011;11388;54.456;9.752;2023-04-25T10:21:48;7.70;;;1.75;;
22441;SDS011;11388;54.456;9.752;2023-04-25T10:24:19;10.25;;;1.98;;
22441;SDS011;11388;54.456;9.752;2023-04-25T10:55:25;3.70;;;0.90;;
22441;SDS011;11388;54.456;9.752;2023-04-25T10:57:51;3.88;;;0.80;;
22441;SDS011;11388;54.456;9.752;2023-04-25T11:00:19;4.63;;;1.10;;
22441;SDS011;11388;54.456;9.752;2023-04-25T11:03:00;5.97;;;1.30;;
22441;SDS011;11388;54.456;9.752;2023-04-25T11:05:36;6.63;;;1.38;;
22441;SDS011;11388;54.456;9.752;2023-04-25T11:08:07;7.80;;;1.63;;
22441;SDS011;11388;54.456;9.752;2023-04-25T11:13:31;6.95;;;1.58;;
22441;SDS011;11388;54.456;9.752;2023-04-25T11:16:02;6.38;;;1.50;;
22441;SDS011;11388;54.456;9.752;2023-04-25T11:18:45;8.80;;;1.55;;
22441;SDS011;11388;54.456;9.752;2023-04-25T11:21:17;6.97;;;1.35;;
22441;SDS011;11388;54.456;9.752;2023-04-25T11:23:59;7.85;;;1.80;;
22441;SDS011;11388;54.456;9.752;2023-04-25T12:26:59;4.97;;;1.20;;
22441;SDS011;11388;54.456;9.752;2023-04-25T12:29:29;4.65;;;1.25;;
22441;SDS011;11388;54.456;9.752;2023-04-25T12:32:01;7.72;;;1.80;;
22441;SDS011;11388;54.456;9.752;2023-04-25T12:57:04;8.88;;;1.70;;
22441;SDS011;11388;54.456;9.752;2023-04-25T12:59:50;8.88;;;1.83;;
22441;SDS011;11388;54.456;9.752;2023-04-25T13:02:44;8.35;;;1.83;;
22441;SDS011;11388;54.456;9.752;2023-04-25T13:05:11;7.53;;;1.90;;
22441;SDS011;11388;54.456;9.752;2023-04-25T13:07:38;7.13;;;1.70;;
22441;SDS011;11388;54.456;9.752;2023-04-25T13:10:06;6.50;;;1.60;;
22441;SDS011;11388;54.456;9.752;2023-04-25T13:12:34;5.82;;;1.20;;
22441;SDS011;11388;54.456;9.752;2023-04-25T13:15:00;6.13;;;1.10;;
22441;SDS011;11388;54.456;9.752;2023-04-25T13:17:26;5.38;;;1.20;;
22441;SDS011;11388;54.456;9.752;2023-04-25T13:19:52;7.03;;;1.33;;
22441;SDS011;11388;54.456;9.752;2023-04-25T13:22:17;5.32;;;1.20;;
22441;SDS011;11388;54.456;9.752;2023-04-25T13:24:45;6.70;;;1.73;;
22441;SDS011;11388;54.456;9.752;2023-04-25T13:27:11;6.47;;;1.60;;
22441;SDS011;11388;54.456;9.752;2023-04-25T13:29:40;8.13;;;1.90;;
22441;SDS011;11388;54.456;9.752;2023-04-25T13:32:08;6.55;;;1.42;;
22441;SDS011;11388;54.456;9.752;2023-04-25T13:34:34;7.18;;;1.50;;
22441;SDS011;11388;54.456;9.752;2023-04-25T13:37:00;7.47;;;1.60;;
22441;SDS011;11388;54.456;9.752;2023-04-25T13:39:26;7.10;;;1.95;;
22441;SDS011;11388;54.456;9.752;2023-04-25T13:41:52;6.85;;;1.65;;
22441;SDS011;11388;54.456;9.752;2023-04-25T13:44:17;8.60;;;1.90;;
22441;SDS011;11388;54.456;9.752;2023-04-25T13:46:44;6.85;;;1.77;;
22441;SDS011;11388;54.456;9.752;2023-04-25T13:49:11;6.28;;;1.77;;
22441;SDS011;11388;54.456;9.752;2023-04-25T13:51:37;7.13;;;1.80;;
22441;SDS011;11388;54.456;9.752;2023-04-25T13:54:02;8.65;;;1.48;;
22441;SDS011;11388;54.456;9.752;2023-04-25T13:56:28;6.75;;;1.50;;
22441;SDS011;11388;54.456;9.752;2023-04-25T13:58:57;8.48;;;1.58;;
22441;SDS011;11388;54.456;9.752;2023-04-25T14:01:23;7.32;;;1.65;;
22441;SDS011;11388;54.456;9.752;2023-04-25T14:03:48;6.50;;;1.35;;
22441;SDS011;11388;54.456;9.752;2023-04-25T14:06:14;8.75;;;1.77;;
22441;SDS011;11388;54.456;9.752;2023-04-25T14:08:49;9.32;;;1.63;;
22441;SDS011;11388;54.456;9.752;2023-04-25T14:11:15;10.27;;;1.73;;
22441;SDS011;11388;54.456;9.752;2023-04-25T14:13:45;9.60;;;1.88;;
22441;SDS011;11388;54.456;9.752;2023-04-25T14:16:12;7.38;;;1.70;;
22441;SDS011;11388;54.456;9.752;2023-04-25T14:18:38;8.05;;;1.92;;
22441;SDS011;11388;54.456;9.752;2023-04-25T14:21:04;7.07;;;1.70;;
22441;SDS011;11388;54.456;9.752;2023-04-25T14:23:38;8.60;;;1.73;;
22441;SDS011;11388;54.456;9.752;2023-04-25T14:26:06;8.07;;;1.85;;
22441;SDS011;11388;54.456;9.752;2023-04-25T14:28:34;6.88;;;1.90;;
22441;SDS011;11388;54.456;9.752;2023-04-25T14:31:02;7.00;;;1.40;;
22441;SDS011;11388;54.456;9.752;2023-04-25T14:33:29;8.00;;;1.80;;
22441;SDS011;11388;54.456;9.752;2023-04-25T14:35:55;10.60;;;1.90;;
22441;SDS011;11388;54.456;9.752;2023-04-25T14:38:24;9.25;;;2.00;;
22441;SDS011;11388;54.456;9.752;2023-04-25T14:40:50;8.10;;;1.80;;
22441;SDS011;11388;54.456;9.752;2023-04-25T14:43:19;7.95;;;1.80;;
22441;SDS011;11388;54.456;9.752;2023-04-25T14:45:52;10.77;;;2.05;;
22441;SDS011;11388;54.456;9.752;2023-04-25T14:48:19;8.90;;;1.92;;
22441;SDS011;11388;54.456;9.752;2023-04-25T14:50:45;9.60;;;2.10;;
22441;SDS011;11388;54.456;9.752;2023-04-25T14:53:11;9.43;;;2.20;;
22441;SDS011;11388;54.456;9.752;2023-04-25T14:55:38;11.73;;;2.30;;
22441;SDS011;11388;54.456;9.752;2023-04-25T14:58:04;9.98;;;2.05;;
22441;SDS011;11388;54.456;9.752;2023-04-25T15:00:33;10.70;;;2.28;;
22441;SDS011;11388;54.456;9.752;2023-04-25T15:03:11;9.77;;;2.05;;
22441;SDS011;11388;54.456;9.752;2023-04-25T15:05:38;10.43;;;2.20;;
22441;SDS011;11388;54.456;9.752;2023-04-25T15:08:05;9.85;;;1.88;;
22441;SDS011;11388;54.456;9.752;2023-04-25T15:10:31;8.95;;;1.70;;
22441;SDS011;11388;54.456;9.752;2023-04-25T15:12:56;10.35;;;1.83;;
22441;SDS011;11388;54.456;9.752;2023-04-25T15:15:22;10.50;;;2.20;;
22441;SDS011;11388;54.456;9.752;2023-04-25T15:17:51;7.95;;;1.95;;
22441;SDS011;11388;54.456;9.752;2023-04-25T15:20:18;9.70;;;1.80;;
22441;SDS011;11388;54.456;9.752;2023-04-25T15:22:50;7.93;;;2.03;;
22441;SDS011;11388;54.456;9.752;2023-04-25T15:28:22;10.50;;;2.13;;
22441;SDS011;11388;54.456;9.752;2023-04-25T15:30:48;12.02;;;2.25;;
22441;SDS011;11388;54.456;9.752;2023-04-25T15:33:14;10.75;;;2.15;;
22441;SDS011;11388;54.456;9.752;2023-04-25T15:35:40;14.65;;;2.03;;
22441;SDS011;11388;54.456;9.752;2023-04-25T15:38:06;7.72;;;1.92;;
22441;SDS011;11388;54.456;9.752;2023-04-25T15:40:32;9.77;;;1.60;;
22441;SDS011;11388;54.456;9.752;2023-04-25T15:43:01;7.95;;;1.70;;
22441;SDS011;11388;54.456;9.752;2023-04-25T15:45:39;6.05;;;1.50;;
22441;SDS011;11388;54.456;9.752;2023-04-25T15:48:08;4.75;;;1.35;;
22441;SDS011;11388;54.456;9.752;2023-04-25T15:50:59;8.60;;;1.63;;
22441;SDS011;11388;54.456;9.752;2023-04-25T15:53:27;6.53;;;1.40;;
22441;SDS011;11388;54.456;9.752;2023-04-25T15:58:21;8.85;;;1.58;;
22441;SDS011;11388;54.456;9.752;2023-04-25T16:00:50;7.72;;;1.55;;
22441;SDS011;11388;54.456;9.752;2023-04-25T16:03:16;10.27;;;1.90;;
22441;SDS011;11388;54.456;9.752;2023-04-25T16:05:42;5.53;;;1.20;;
22441;SDS011;11388;54.456;9.752;2023-04-25T16:08:18;9.07;;;1.80;;
22441;SDS011;11388;54.456;9.752;2023-04-25T16:10:46;6.68;;;1.55;;
22441;SDS011;11388;54.456;9.752;2023-04-25T16:13:13;10.38;;;1.75;;
22441;SDS011;11388;54.456;9.752;2023-04-25T16:15:48;6.53;;;1.55;;
22441;SDS011;11388;54.456;9.752;2023-04-25T16:18:14;7.85;;;1.45;;
22441;SDS011;11388;54.456;9.752;2023-04-25T16:20:40;7.57;;;1.73;;
22441;SDS011;11388;54.456;9.752;2023-04-25T16:23:14;9.32;;;2.05;;
22441;SDS011;11388;54.456;9.752;2023-04-25T16:25:40;6.32;;;1.50;;
22441;SDS011;11388;54.456;9.752;2023-04-25T16:28:18;6.65;;;1.48;;
22441;SDS011;11388;54.456;9.752;2023-04-25T16:30:47;7.97;;;1.75;;
22441;SDS011;11388;54.456;9.752;2023-04-25T16:33:13;11.13;;;1.85;;
22441;SDS011;11388;54.456;9.752;2023-04-25T16:35:42;6.28;;;1.73;;
22441;SDS011;11388;54.456;9.752;2023-04-25T16:38:13;8.32;;;1.70;;
22441;SDS011;11388;54.456;9.752;2023-04-25T16:40:39;7.43;;;1.30;;
22441;SDS011;11388;54.456;9.752;2023-04-25T16:58:46;8.52;;;1.52;;
22441;SDS011;11388;54.456;9.752;2023-04-25T17:01:12;8.38;;;1.73;;
22441;SDS011;11388;54.456;9.752;2023-04-25T17:03:40;10.02;;;1.77;;
22441;SDS011;11388;54.456;9.752;2023-04-25T17:06:08;8.80;;;1.73;;
22441;SDS011;11388;54.456;9.752;2023-04-25T17:08:43;9.23;;;1.83;;
22441;SDS011;11388;54.456;9.752;2023-04-25T17:11:11;7.60;;;2.17;;
22441;SDS011;11388;54.456;9.752;2023-04-25T17:13:37;8.48;;;1.85;;
22441;SDS011;11388;54.456;9.752;2023-04-25T17:16:11;6.22;;;1.48;;
22441;SDS011;11388;54.456;9.752;2023-04-25T17:18:42;9.85;;;2.03;;
22441;SDS011;11388;54.456;9.752;2023-04-25T17:21:10;7.05;;;1.15;;
22441;SDS011;11388;54.456;9.752;2023-04-25T17:23:36;6.05;;;1.10;;
22441;SDS011;11388;54.456;9.752;2023-04-25T17:26:01;7.00;;;1.40;;
22441;SDS011;11388;54.456;9.752;2023-04-25T17:28:30;5.25;;;1.10;;
22441;SDS011;11388;54.456;9.752;2023-04-25T17:30:56;4.15;;;1.20;;
22441;SDS011;11388;54.456;9.752;2023-04-25T17:33:22;4.75;;;1.00;;
22441;SDS011;11388;54.456;9.752;2023-04-25T17:35:51;5.85;;;1.25;;
22441;SDS011;11388;54.456;9.752;2023-04-25T17:38:18;5.38;;;1.23;;
22441;SDS011;11388;54.456;9.752;2023-04-25T17:40:44;6.05;;;0.95;;